sensor_id;sensor_type;location;lat;lon;timestamp;P1;durP1;ratioP1;P2;durP2;ratioP2
20314;SDS011;10315;50.958;13.080;2022-08-03T00:09:47;3.28;;;2.88;;
20314;SDS011;10315;50.958;13.080;2022-08-03T00:19:50;4.10;;;2.60;;
20314;SDS011;10315;50.958;13.080;2022-08-03T03:05:22;7.53;;;5.90;;
20314;SDS011;10315;50.958;13.080;2022-08-03T03:15:24;7.82;;;6.32;;
20314;SDS011;10315;50.958;13.080;2022-08-03T03:25:29;8.82;;;6.07;;
20314;SDS011;10315;50.958;13.080;2022-08-03T03:35:35;6.88;;;5.28;;
20314;SDS011;10315;50.958;13.080;2022-08-03T03:45:42;8.05;;;5.28;;
20314;SDS011;10315;50.958;13.080;2022-08-03T03:56:00;11.77;;;5.93;;
20314;SDS011;10315;50.958;13.080;2022-08-03T04:07:01;7.47;;;5.40;;
20314;SDS011;10315;50.958;13.080;2022-08-03T04:17:21;6.30;;;4.88;;
20314;SDS011;10315;50.958;13.080;2022-08-03T04:27:37;7.60;;;5.90;;
20314;SDS011;10315;50.958;13.080;2022-08-03T04:37:41;6.25;;;4.85;;
20314;SDS011;10315;50.958;13.080;2022-08-03T04:47:48;5.53;;;4.60;;
20314;SDS011;10315;50.958;13.080;2022-08-03T04:57:50;10.15;;;4.43;;
20314;SDS011;10315;50.958;13.080;2022-08-03T05:07:53;5.50;;;4.45;;
20314;SDS011;10315;50.958;13.080;2022-08-03T05:17:55;7.85;;;4.55;;
20314;SDS011;10315;50.958;13.080;2022-08-03T05:27:58;6.30;;;4.10;;
20314;SDS011;10315;50.958;13.080;2022-08-03T05:38:00;8.98;;;4.25;;
20314;SDS011;10315;50.958;13.080;2022-08-03T05:48:03;10.05;;;4.15;;
20314;SDS011;10315;50.958;13.080;2022-08-03T05:58:05;6.43;;;3.55;;
20314;SDS011;10315;50.958;13.080;2022-08-03T06:08:08;3.72;;;3.33;;
20314;SDS011;10315;50.958;13.080;2022-08-03T06:18:09;6.00;;;3.70;;
20314;SDS011;10315;50.958;13.080;2022-08-03T06:28:13;5.10;;;3.63;;
20314;SDS011;10315;50.958;13.080;2022-08-03T06:38:15;3.53;;;2.90;;
20314;SDS011;10315;50.958;13.080;2022-08-03T06:48:18;4.78;;;2.70;;
20314;SDS011;10315;50.958;13.080;2022-08-03T06:58:19;5.55;;;2.45;;
20314;SDS011;10315;50.958;13.080;2022-08-03T07:08:22;3.50;;;2.35;;
20314;SDS011;10315;50.958;13.080;2022-08-03T07:18:24;5.45;;;2.25;;
20314;SDS011;10315;50.958;13.080;2022-08-03T07:28:27;4.72;;;1.85;;
20314;SDS011;10315;50.958;13.080;2022-08-03T07:38:28;2.40;;;1.85;;
20314;SDS011;10315;50.958;13.080;2022-08-03T07:48:31;2.05;;;1.90;;
20314;SDS011;10315;50.958;13.080;2022-08-03T07:58:34;2.67;;;1.42;;
20314;SDS011;10315;50.958;13.080;2022-08-03T08:08:38;1.63;;;1.52;;
20314;SDS011;10315;50.958;13.080;2022-08-03T08:18:40;2.03;;;1.58;;
20314;SDS011;10315;50.958;13.080;2022-08-03T08:28:42;1.30;;;1.30;;
20314;SDS011;10315;50.958;13.080;2022-08-03T08:38:44;1.95;;;1.60;;
20314;SDS011;10315;50.958;13.080;2022-08-03T08:48:47;2.08;;;1.80;;
20314;SDS011;10315;50.958;13.080;2022-08-03T08:58:51;1.80;;;1.70;;
20314;SDS011;10315;50.958;13.080;2022-08-03T09:08:58;2.00;;;1.85;;
20314;SDS011;10315;50.958;13.080;2022-08-03T09:19:10;2.00;;;1.58;;
20314;SDS011;10315;50.958;13.080;2022-08-03T09:29:18;2.35;;;2.10;;
20314;SDS011;10315;50.958;13.080;2022-08-03T09:39:21;3.40;;;2.22;;
20314;SDS011;10315;50.958;13.080;2022-08-03T09:49:25;1.73;;;1.63;;
20314;SDS011;10315;50.958;13.080;2022-08-03T09:59:27;2.55;;;1.55;;
20314;SDS011;10315;50.958;13.080;2022-08-03T10:09:32;1.17;;;1.17;;
20314;SDS011;10315;50.958;13.080;2022-08-03T10:19:33;1.50;;;1.33;;
20314;SDS011;10315;50.958;13.080;2022-08-03T10:29:37;2.97;;;1.60;;
20314;SDS011;10315;50.958;13.080;2022-08-03T10:39:43;2.22;;;1.40;;
20314;SDS011;10315;50.958;13.080;2022-08-03T10:49:54;2.35;;;1.55;;
20314;SDS011;10315;50.958;13.080;2022-08-03T10:59:57;1.70;;;1.60;;
20314;SDS011;10315;50.958;13.080;2022-08-03T11:10:03;1.80;;;1.70;;
20314;SDS011;10315;50.958;13.080;2022-08-03T11:20:05;1.73;;;1.50;;
20314;SDS011;10315;50.958;13.080;2022-08-03T11:30:09;3.42;;;1.50;;
20314;SDS011;10315;50.958;13.080;2022-08-03T11:40:31;1.85;;;1.65;;
20314;SDS011;10315;50.958;13.080;2022-08-03T11:50:36;3.17;;;2.10;;
20314;SDS011;10315;50.958;13.080;2022-08-03T12:00:37;3.42;;;1.58;;
20314;SDS011;10315;50.958;13.080;2022-08-03T12:10:45;1.60;;;1.50;;
20314;SDS011;10315;50.958;13.080;2022-08-03T12:20:49;1.80;;;1.67;;
20314;SDS011;10315;50.958;13.080;2022-08-03T12:30:53;2.05;;;1.40;;
20314;SDS011;10315;50.958;13.080;2022-08-03T12:40:55;3.67;;;1.67;;
20314;SDS011;10315;50.958;13.080;2022-08-03T12:51:09;2.80;;;1.60;;
20314;SDS011;10315;50.958;13.080;2022-08-03T13:01:11;4.20;;;1.48;;
20314;SDS011;10315;50.958;13.080;2022-08-03T13:11:20;3.40;;;1.58;;
20314;SDS011;10315;50.958;13.080;2022-08-03T13:21:23;2.00;;;1.67;;
20314;SDS011;10315;50.958;13.080;2022-08-03T13:31:26;3.53;;;1.88;;
20314;SDS011;10315;50.958;13.080;2022-08-03T13:41:28;2.25;;;1.75;;
20314;SDS011;10315;50.958;13.080;2022-08-03T13:51:32;2.92;;;1.85;;
20314;SDS011;10315;50.958;13.080;2022-08-03T14:01:34;3.42;;;1.63;;
20314;SDS011;10315;50.958;13.080;2022-08-03T14:11:37;2.03;;;1.92;;
20314;SDS011;10315;50.958;13.080;2022-08-03T14:21:38;1.90;;;1.80;;
20314;SDS011;10315;50.958;13.080;2022-08-03T14:31:41;4.40;;;1.60;;
20314;SDS011;10315;50.958;13.080;2022-08-03T14:41:43;1.73;;;1.63;;
20314;SDS011;10315;50.958;13.080;2022-08-03T14:51:46;1.52;;;1.42;;
20314;SDS011;10315;50.958;13.080;2022-08-03T15:01:47;2.10;;;1.95;;
20314;SDS011;10315;50.958;13.080;2022-08-03T15:11:50;2.00;;;1.83;;
20314;SDS011;10315;50.958;13.080;2022-08-03T15:21:52;4.80;;;2.03;;
20314;SDS011;10315;50.958;13.080;2022-08-03T15:31:55;1.67;;;1.58;;
20314;SDS011;10315;50.958;13.080;2022-08-03T15:41:56;1.88;;;1.77;;
20314;SDS011;10315;50.958;13.080;2022-08-03T15:51:59;2.47;;;1.90;;
20314;SDS011;10315;50.958;13.080;2022-08-03T16:02:01;2.10;;;1.88;;
20314;SDS011;10315;50.958;13.080;2022-08-03T16:12:05;5.30;;;1.85;;
20314;SDS011;10315;50.958;13.080;2022-08-03T16:22:06;5.05;;;1.70;;
20314;SDS011;10315;50.958;13.080;2022-08-03T16:32:09;2.35;;;2.15;;
20314;SDS011;10315;50.958;13.080;2022-08-03T16:42:11;3.42;;;2.08;;
20314;SDS011;10315;50.958;13.080;2022-08-03T16:52:14;2.65;;;1.90;;
20314;SDS011;10315;50.958;13.080;2022-08-03T17:02:17;2.10;;;1.95;;
20314;SDS011;10315;50.958;13.080;2022-08-03T17:12:23;2.60;;;1.90;;
20314;SDS011;10315;50.958;13.080;2022-08-03T17:22:26;2.03;;;1.80;;
20314;SDS011;10315;50.958;13.080;2022-08-03T17:32:32;2.60;;;1.67;;
20314;SDS011;10315;50.958;13.080;2022-08-03T17:42:36;2.25;;;1.80;;
20314;SDS011;10315;50.958;13.080;2022-08-03T17:52:40;2.65;;;1.73;;
20314;SDS011;10315;50.958;13.080;2022-08-03T18:02:46;2.13;;;1.90;;
20314;SDS011;10315;50.958;13.080;2022-08-03T18:13:14;5.50;;;2.05;;
20314;SDS011;10315;50.958;13.080;2022-08-03T18:23:22;4.07;;;2.00;;
20314;SDS011;10315;50.958;13.080;2022-08-03T18:33:29;7.50;;;1.90;;
20314;SDS011;10315;50.958;13.080;2022-08-03T18:43:38;3.38;;;2.80;;
20314;SDS011;10315;50.958;13.080;2022-08-03T18:53:46;5.20;;;2.10;;
20314;SDS011;10315;50.958;13.080;2022-08-03T19:03:54;4.03;;;1.98;;
20314;SDS011;10315;50.958;13.080;2022-08-03T19:14:04;7.25;;;2.08;;
20314;SDS011;10315;50.958;13.080;2022-08-03T19:24:07;3.95;;;2.17;;
20314;SDS011;10315;50.958;13.080;2022-08-03T19:34:10;3.13;;;2.33;;
20314;SDS011;10315;50.958;13.080;2022-08-03T19:44:14;7.20;;;1.90;;
20314;SDS011;10315;50.958;13.080;2022-08-03T19:54:23;5.63;;;2.17;;
20314;SDS011;10315;50.958;13.080;2022-08-03T20:04:31;5.22;;;1.92;;
20314;SDS011;10315;50.958;13.080;2022-08-03T20:14:34;5.82;;;2.20;;
20314;SDS011;10315;50.958;13.080;2022-08-03T20:24:39;5.13;;;2.40;;
20314;SDS011;10315;50.958;13.080;2022-08-03T20:34:43;3.92;;;1.92;;
20314;SDS011;10315;50.958;13.080;2022-08-03T20:44:45;4.40;;;1.85;;
20314;SDS011;10315;50.958;13.080;2022-08-03T20:54:48;4.38;;;1.90;;
20314;SDS011;10315;50.958;13.080;2022-08-03T21:04:50;3.65;;;2.38;;
20314;SDS011;10315;50.958;13.080;2022-08-03T21:14:55;6.53;;;2.53;;
20314;SDS011;10315;50.958;13.080;2022-08-03T21:25:03;8.52;;;2.47;;
20314;SDS011;10315;50.958;13.080;2022-08-03T21:35:08;4.28;;;2.00;;
20314;SDS011;10315;50.958;13.080;2022-08-03T21:45:11;7.78;;;2.70;;
20314;SDS011;10315;50.958;13.080;2022-08-03T21:55:15;5.82;;;2.60;;
20314;SDS011;10315;50.958;13.080;2022-08-03T22:05:18;3.22;;;2.53;;
20314;SDS011;10315;50.958;13.080;2022-08-03T22:15:21;4.75;;;2.40;;
20314;SDS011;10315;50.958;13.080;2022-08-03T22:25:25;2.55;;;2.35;;
20314;SDS011;10315;50.958;13.080;2022-08-03T22:35:31;3.90;;;2.50;;
20314;SDS011;10315;50.958;13.080;2022-08-03T22:45:38;3.17;;;2.75;;
20314;SDS011;10315;50.958;13.080;2022-08-03T22:55:45;4.50;;;2.60;;
20314;SDS011;10315;50.958;13.080;2022-08-03T23:05:48;3.80;;;2.10;;
20314;SDS011;10315;50.958;13.080;2022-08-03T23:15:54;4.70;;;2.60;;
20314;SDS011;10315;50.958;13.080;2022-08-03T23:25:57;2.85;;;2.10;;
20314;SDS011;10315;50.958;13.080;2022-08-03T23:36:01;2.42;;;2.22;;
20314;SDS011;10315;50.958;13.080;2022-08-03T23:46:05;2.60;;;2.40;;
20314;SDS011;10315;50.958;13.080;2022-08-03T23:56:11;2.55;;;2.35;;
